sensor_id;sensor_type;location;lat;lon;timestamp;temperature;humidity
13591;DHT22;6866;50.778;7.206;2023-12-14T00:01:38;7.50;99.90
13591;DHT22;6866;50.778;7.206;2023-12-14T00:04:05;7.50;99.90
13591;DHT22;6866;50.778;7.206;2023-12-14T00:06:31;7.60;99.90
13591;DHT22;6866;50.778;7.206;2023-12-14T00:08:56;7.80;99.90
13591;DHT22;6866;50.778;7.206;2023-12-14T00:11:22;7.80;99.90
13591;DHT22;6866;50.778;7.206;2023-12-14T00:13:47;7.60;99.90
13591;DHT22;6866;50.778;7.206;2023-12-14T00:16:13;7.50;99.90
13591;DHT22;6866;50.778;7.206;2023-12-14T00:18:38;7.50;99.90
13591;DHT22;6866;50.778;7.206;2023-12-14T00:21:04;7.60;99.90
13591;DHT22;6866;50.778;7.206;2023-12-14T00:23:30;7.60;99.90
13591;DHT22;6866;50.778;7.206;2023-12-14T00:25:55;7.70;99.90
13591;DHT22;6866;50.778;7.206;2023-12-14T00:28:21;7.60;99.90
13591;DHT22;6866;50.778;7.206;2023-12-14T00:30:47;7.70;99.90
13591;DHT22;6866;50.778;7.206;2023-12-14T00:33:13;7.70;99.90
13591;DHT22;6866;50.778;7.206;2023-12-14T00:35:39;7.60;99.90
13591;DHT22;6866;50.778;7.206;2023-12-14T00:38:04;7.70;99.90
13591;DHT22;6866;50.778;7.206;2023-12-14T00:40:30;7.60;99.90
13591;DHT22;6866;50.778;7.206;2023-12-14T00:42:55;7.60;99.90
13591;DHT22;6866;50.778;7.206;2023-12-14T00:45:21;7.70;99.90
13591;DHT22;6866;50.778;7.206;2023-12-14T00:47:46;7.80;99.90
13591;DHT22;6866;50.778;7.206;2023-12-14T00:50:12;7.60;99.90
13591;DHT22;6866;50.778;7.206;2023-12-14T00:52:37;7.60;99.90
13591;DHT22;6866;50.778;7.206;2023-12-14T00:55:03;7.60;99.90
13591;DHT22;6866;50.778;7.206;2023-12-14T00:57:29;7.60;99.90
13591;DHT22;6866;50.778;7.206;2023-12-14T00:59:54;7.70;99.90
13591;DHT22;6866;50.778;7.206;2023-12-14T01:02:20;7.70;99.90
13591;DHT22;6866;50.778;7.206;2023-12-14T01:04:45;7.60;99.90
13591;DHT22;6866;50.778;7.206;2023-12-14T01:07:11;7.60;99.90
13591;DHT22;6866;50.778;7.206;2023-12-14T01:09:36;7.60;99.90
13591;DHT22;6866;50.778;7.206;2023-12-14T01:12:02;7.60;99.90
13591;DHT22;6866;50.778;7.206;2023-12-14T01:14:28;7.70;99.90
13591;DHT22;6866;50.778;7.206;2023-12-14T01:16:54;7.60;99.90
13591;DHT22;6866;50.778;7.206;2023-12-14T01:19:19;7.60;99.90
13591;DHT22;6866;50.778;7.206;2023-12-14T01:21:45;7.70;99.90
13591;DHT22;6866;50.778;7.206;2023-12-14T01:24:10;7.70;99.90
13591;DHT22;6866;50.778;7.206;2023-12-14T01:26:36;7.70;99.90
13591;DHT22;6866;50.778;7.206;2023-12-14T01:29:01;7.70;99.90
13591;DHT22;6866;50.778;7.206;2023-12-14T01:31:27;7.60;99.90
13591;DHT22;6866;50.778;7.206;2023-12-14T01:33:53;7.60;99.90
13591;DHT22;6866;50.778;7.206;2023-12-14T01:36:23;7.60;99.90
13591;DHT22;6866;50.778;7.206;2023-12-14T01:38:49;7.70;99.90
13591;DHT22;6866;50.778;7.206;2023-12-14T01:41:15;7.70;99.90
13591;DHT22;6866;50.778;7.206;2023-12-14T01:43:40;7.70;99.90
13591;DHT22;6866;50.778;7.206;2023-12-14T01:46:06;7.60;99.90
13591;DHT22;6866;50.778;7.206;2023-12-14T01:48:31;7.60;99.90
13591;DHT22;6866;50.778;7.206;2023-12-14T01:50:57;7.80;99.90
13591;DHT22;6866;50.778;7.206;2023-12-14T01:53:22;7.80;99.90
13591;DHT22;6866;50.778;7.206;2023-12-14T01:55:48;7.70;99.90
13591;DHT22;6866;50.778;7.206;2023-12-14T01:58:14;7.60;99.90
13591;DHT22;6866;50.778;7.206;2023-12-14T02:03:15;7.70;99.90
13591;DHT22;6866;50.778;7.206;2023-12-14T02:05:41;7.80;99.90
13591;DHT22;6866;50.778;7.206;2023-12-14T02:08:07;7.80;99.90
13591;DHT22;6866;50.778;7.206;2023-12-14T02:10:32;7.70;99.90
13591;DHT22;6866;50.778;7.206;2023-12-14T02:12:58;7.70;99.90
13591;DHT22;6866;50.778;7.206;2023-12-14T02:15:26;7.80;99.90
13591;DHT22;6866;50.778;7.206;2023-12-14T02:17:51;7.80;99.90
13591;DHT22;6866;50.778;7.206;2023-12-14T02:20:17;7.60;99.90
13591;DHT22;6866;50.778;7.206;2023-12-14T02:25:16;7.60;99.90
13591;DHT22;6866;50.778;7.206;2023-12-14T02:27:41;7.70;99.90
13591;DHT22;6866;50.778;7.206;2023-12-14T02:30:07;7.70;99.90
13591;DHT22;6866;50.778;7.206;2023-12-14T02:32:33;7.80;99.90
13591;DHT22;6866;50.778;7.206;2023-12-14T02:34:58;7.90;99.90
13591;DHT22;6866;50.778;7.206;2023-12-14T02:37:24;7.80;99.90
13591;DHT22;6866;50.778;7.206;2023-12-14T02:39:49;7.80;99.90
13591;DHT22;6866;50.778;7.206;2023-12-14T02:42:15;7.80;99.90
13591;DHT22;6866;50.778;7.206;2023-12-14T02:44:40;7.80;99.90
13591;DHT22;6866;50.778;7.206;2023-12-14T02:47:06;7.80;99.90
13591;DHT22;6866;50.778;7.206;2023-12-14T02:49:31;7.70;99.90
13591;DHT22;6866;50.778;7.206;2023-12-14T02:51:57;7.70;99.90
13591;DHT22;6866;50.778;7.206;2023-12-14T02:54:22;7.60;99.90
13591;DHT22;6866;50.778;7.206;2023-12-14T02:56:48;7.70;99.90
13591;DHT22;6866;50.778;7.206;2023-12-14T02:59:13;7.70;99.90
13591;DHT22;6866;50.778;7.206;2023-12-14T03:01:39;7.70;99.90
13591;DHT22;6866;50.778;7.206;2023-12-14T03:04:05;7.80;99.90
13591;DHT22;6866;50.778;7.206;2023-12-14T03:06:31;7.80;99.90
13591;DHT22;6866;50.778;7.206;2023-12-14T03:08:57;7.90;99.90
13591;DHT22;6866;50.778;7.206;2023-12-14T03:11:23;7.90;99.90
13591;DHT22;6866;50.778;7.206;2023-12-14T03:13:49;7.90;99.90
13591;DHT22;6866;50.778;7.206;2023-12-14T03:16:14;7.90;99.90
13591;DHT22;6866;50.778;7.206;2023-12-14T03:18:42;7.80;99.90
13591;DHT22;6866;50.778;7.206;2023-12-14T03:21:09;7.90;99.90
13591;DHT22;6866;50.778;7.206;2023-12-14T03:23:34;7.90;99.90
13591;DHT22;6866;50.778;7.206;2023-12-14T03:26:00;7.90;99.90
13591;DHT22;6866;50.778;7.206;2023-12-14T03:28:26;7.90;99.90
13591;DHT22;6866;50.778;7.206;2023-12-14T03:30:52;7.80;99.90
13591;DHT22;6866;50.778;7.206;2023-12-14T03:33:18;7.90;99.90
13591;DHT22;6866;50.778;7.206;2023-12-14T03:35:43;7.80;99.90
13591;DHT22;6866;50.778;7.206;2023-12-14T03:38:09;7.80;99.90
13591;DHT22;6866;50.778;7.206;2023-12-14T03:40:35;7.90;99.90
13591;DHT22;6866;50.778;7.206;2023-12-14T03:43:01;7.90;99.90
13591;DHT22;6866;50.778;7.206;2023-12-14T03:45:28;8.00;99.90
13591;DHT22;6866;50.778;7.206;2023-12-14T03:47:54;8.00;99.90
13591;DHT22;6866;50.778;7.206;2023-12-14T03:50:20;8.00;99.90
13591;DHT22;6866;50.778;7.206;2023-12-14T03:52:45;8.10;99.90
13591;DHT22;6866;50.778;7.206;2023-12-14T03:55:11;8.00;99.90
13591;DHT22;6866;50.778;7.206;2023-12-14T03:57:37;8.10;99.90
13591;DHT22;6866;50.778;7.206;2023-12-14T04:00:03;8.10;99.90
13591;DHT22;6866;50.778;7.206;2023-12-14T04:02:29;8.10;99.90
13591;DHT22;6866;50.778;7.206;2023-12-14T04:04:54;8.10;99.90
13591;DHT22;6866;50.778;7.206;2023-12-14T04:07:20;8.20;99.90
13591;DHT22;6866;50.778;7.206;2023-12-14T04:09:46;8.20;99.90
13591;DHT22;6866;50.778;7.206;2023-12-14T04:12:11;8.20;99.90
13591;DHT22;6866;50.778;7.206;2023-12-14T04:14:37;8.30;99.90
13591;DHT22;6866;50.778;7.206;2023-12-14T04:17:02;8.20;99.90
13591;DHT22;6866;50.778;7.206;2023-12-14T04:19:28;8.30;99.90
13591;DHT22;6866;50.778;7.206;2023-12-14T04:21:53;8.30;99.90
13591;DHT22;6866;50.778;7.206;2023-12-14T04:24:19;8.30;99.90
13591;DHT22;6866;50.778;7.206;2023-12-14T04:26:44;8.40;99.90
13591;DHT22;6866;50.778;7.206;2023-12-14T04:29:10;8.50;99.90
13591;DHT22;6866;50.778;7.206;2023-12-14T04:31:36;8.50;99.90
13591;DHT22;6866;50.778;7.206;2023-12-14T04:34:01;8.60;99.90
13591;DHT22;6866;50.778;7.206;2023-12-14T04:36:26;8.60;99.90
13591;DHT22;6866;50.778;7.206;2023-12-14T04:38:52;8.60;99.90
13591;DHT22;6866;50.778;7.206;2023-12-14T04:41:17;8.70;99.90
13591;DHT22;6866;50.778;7.206;2023-12-14T04:43:43;8.70;99.90
13591;DHT22;6866;50.778;7.206;2023-12-14T04:46:08;8.60;99.90
13591;DHT22;6866;50.778;7.206;2023-12-14T04:48:34;8.70;99.90
13591;DHT22;6866;50.778;7.206;2023-12-14T04:50:59;8.70;99.90
13591;DHT22;6866;50.778;7.206;2023-12-14T04:53:25;8.50;99.90
13591;DHT22;6866;50.778;7.206;2023-12-14T04:55:50;8.50;99.90
13591;DHT22;6866;50.778;7.206;2023-12-14T04:58:16;8.60;99.90
13591;DHT22;6866;50.778;7.206;2023-12-14T05:00:41;8.60;99.90
13591;DHT22;6866;50.778;7.206;2023-12-14T05:03:07;8.60;99.90
13591;DHT22;6866;50.778;7.206;2023-12-14T05:05:33;8.60;99.90
13591;DHT22;6866;50.778;7.206;2023-12-14T05:07:58;8.60;99.90
13591;DHT22;6866;50.778;7.206;2023-12-14T05:10:24;8.50;99.90
13591;DHT22;6866;50.778;7.206;2023-12-14T05:12:49;8.50;99.90
13591;DHT22;6866;50.778;7.206;2023-12-14T05:15:15;8.50;99.90
13591;DHT22;6866;50.778;7.206;2023-12-14T05:17:40;8.50;99.90
13591;DHT22;6866;50.778;7.206;2023-12-14T05:20:09;8.60;99.90
13591;DHT22;6866;50.778;7.206;2023-12-14T05:22:35;8.60;99.90
13591;DHT22;6866;50.778;7.206;2023-12-14T05:25:01;8.60;99.90
13591;DHT22;6866;50.778;7.206;2023-12-14T05:27:26;8.60;99.90
13591;DHT22;6866;50.778;7.206;2023-12-14T05:29:52;8.60;99.90
13591;DHT22;6866;50.778;7.206;2023-12-14T05:32:17;8.60;99.90
13591;DHT22;6866;50.778;7.206;2023-12-14T05:34:43;8.50;99.90
13591;DHT22;6866;50.778;7.206;2023-12-14T05:37:08;8.50;99.90
13591;DHT22;6866;50.778;7.206;2023-12-14T05:39:34;8.50;99.90
13591;DHT22;6866;50.778;7.206;2023-12-14T05:42:00;8.50;99.90
13591;DHT22;6866;50.778;7.206;2023-12-14T05:44:26;8.50;99.90
13591;DHT22;6866;50.778;7.206;2023-12-14T05:46:51;8.50;99.90
13591;DHT22;6866;50.778;7.206;2023-12-14T05:49:17;8.40;99.90
13591;DHT22;6866;50.778;7.206;2023-12-14T05:51:42;8.40;99.90
13591;DHT22;6866;50.778;7.206;2023-12-14T05:54:08;8.40;99.90
13591;DHT22;6866;50.778;7.206;2023-12-14T05:56:33;8.40;99.90
13591;DHT22;6866;50.778;7.206;2023-12-14T05:58:59;8.50;99.90
13591;DHT22;6866;50.778;7.206;2023-12-14T06:01:24;8.40;99.90
13591;DHT22;6866;50.778;7.206;2023-12-14T06:03:50;8.30;99.90
13591;DHT22;6866;50.778;7.206;2023-12-14T06:06:16;8.40;99.90
13591;DHT22;6866;50.778;7.206;2023-12-14T06:08:42;8.50;99.90
13591;DHT22;6866;50.778;7.206;2023-12-14T06:11:08;8.50;99.90
13591;DHT22;6866;50.778;7.206;2023-12-14T06:13:34;8.50;99.90
13591;DHT22;6866;50.778;7.206;2023-12-14T06:15:59;8.50;99.90
13591;DHT22;6866;50.778;7.206;2023-12-14T06:18:25;8.40;99.90
13591;DHT22;6866;50.778;7.206;2023-12-14T06:20:50;8.50;99.90
13591;DHT22;6866;50.778;7.206;2023-12-14T06:23:16;8.50;99.90
13591;DHT22;6866;50.778;7.206;2023-12-14T06:25:42;8.40;99.90
13591;DHT22;6866;50.778;7.206;2023-12-14T06:28:08;8.40;99.90
13591;DHT22;6866;50.778;7.206;2023-12-14T06:30:33;8.40;99.90
13591;DHT22;6866;50.778;7.206;2023-12-14T06:32:59;8.30;99.90
13591;DHT22;6866;50.778;7.206;2023-12-14T06:35:24;8.30;99.90
13591;DHT22;6866;50.778;7.206;2023-12-14T06:37:50;8.30;99.90
13591;DHT22;6866;50.778;7.206;2023-12-14T06:40:16;8.30;99.90
13591;DHT22;6866;50.778;7.206;2023-12-14T06:42:41;8.40;99.90
13591;DHT22;6866;50.778;7.206;2023-12-14T06:45:08;8.30;99.90
13591;DHT22;6866;50.778;7.206;2023-12-14T06:47:33;8.30;99.90
13591;DHT22;6866;50.778;7.206;2023-12-14T06:49:59;8.30;99.90
13591;DHT22;6866;50.778;7.206;2023-12-14T06:52:25;8.30;99.90
13591;DHT22;6866;50.778;7.206;2023-12-14T06:54:50;8.30;99.90
13591;DHT22;6866;50.778;7.206;2023-12-14T06:57:16;8.30;99.90
13591;DHT22;6866;50.778;7.206;2023-12-14T06:59:41;8.30;99.90
13591;DHT22;6866;50.778;7.206;2023-12-14T07:02:07;8.20;99.90
13591;DHT22;6866;50.778;7.206;2023-12-14T07:04:33;8.20;99.90
13591;DHT22;6866;50.778;7.206;2023-12-14T07:06:58;8.20;99.90
13591;DHT22;6866;50.778;7.206;2023-12-14T07:09:24;8.30;99.90
13591;DHT22;6866;50.778;7.206;2023-12-14T07:11:51;8.20;99.90
13591;DHT22;6866;50.778;7.206;2023-12-14T07:14:17;8.20;99.90
13591;DHT22;6866;50.778;7.206;2023-12-14T07:16:42;8.20;99.90
13591;DHT22;6866;50.778;7.206;2023-12-14T07:19:08;8.20;99.90
13591;DHT22;6866;50.778;7.206;2023-12-14T07:21:33;8.30;99.90
13591;DHT22;6866;50.778;7.206;2023-12-14T07:23:59;8.20;99.90
13591;DHT22;6866;50.778;7.206;2023-12-14T07:26:24;8.20;99.90
13591;DHT22;6866;50.778;7.206;2023-12-14T07:28:53;8.20;99.90
13591;DHT22;6866;50.778;7.206;2023-12-14T07:31:19;8.10;99.90
13591;DHT22;6866;50.778;7.206;2023-12-14T07:33:45;8.10;99.90
13591;DHT22;6866;50.778;7.206;2023-12-14T07:36:11;8.10;99.90
13591;DHT22;6866;50.778;7.206;2023-12-14T07:38:36;8.00;99.90
13591;DHT22;6866;50.778;7.206;2023-12-14T07:41:02;7.90;99.90
13591;DHT22;6866;50.778;7.206;2023-12-14T07:43:28;7.90;99.90
13591;DHT22;6866;50.778;7.206;2023-12-14T07:45:54;8.00;99.90
13591;DHT22;6866;50.778;7.206;2023-12-14T07:48:20;7.90;99.90
13591;DHT22;6866;50.778;7.206;2023-12-14T07:50:45;8.00;99.90
13591;DHT22;6866;50.778;7.206;2023-12-14T07:53:11;8.00;99.90
13591;DHT22;6866;50.778;7.206;2023-12-14T07:55:37;8.00;99.90
13591;DHT22;6866;50.778;7.206;2023-12-14T07:58:02;7.90;99.90
13591;DHT22;6866;50.778;7.206;2023-12-14T08:00:28;8.00;99.90
13591;DHT22;6866;50.778;7.206;2023-12-14T08:02:53;8.00;99.90
13591;DHT22;6866;50.778;7.206;2023-12-14T08:05:19;8.00;99.90
13591;DHT22;6866;50.778;7.206;2023-12-14T08:07:44;8.00;99.90
13591;DHT22;6866;50.778;7.206;2023-12-14T08:10:10;8.10;99.90
13591;DHT22;6866;50.778;7.206;2023-12-14T08:12:36;8.10;99.90
13591;DHT22;6866;50.778;7.206;2023-12-14T08:15:02;8.00;99.90
13591;DHT22;6866;50.778;7.206;2023-12-14T08:17:27;8.00;99.90
13591;DHT22;6866;50.778;7.206;2023-12-14T08:19:53;8.00;99.90
13591;DHT22;6866;50.778;7.206;2023-12-14T08:22:19;8.00;99.90
13591;DHT22;6866;50.778;7.206;2023-12-14T08:24:47;8.00;99.90
13591;DHT22;6866;50.778;7.206;2023-12-14T08:27:13;7.90;99.90
13591;DHT22;6866;50.778;7.206;2023-12-14T08:29:38;7.90;99.90
13591;DHT22;6866;50.778;7.206;2023-12-14T08:32:04;7.90;99.90
13591;DHT22;6866;50.778;7.206;2023-12-14T08:34:30;8.00;99.90
13591;DHT22;6866;50.778;7.206;2023-12-14T08:36:56;7.90;99.90
13591;DHT22;6866;50.778;7.206;2023-12-14T08:39:22;7.90;99.90
13591;DHT22;6866;50.778;7.206;2023-12-14T08:41:47;7.80;99.90
13591;DHT22;6866;50.778;7.206;2023-12-14T08:44:14;7.80;99.90
13591;DHT22;6866;50.778;7.206;2023-12-14T08:46:41;7.80;99.90
13591;DHT22;6866;50.778;7.206;2023-12-14T08:49:07;7.80;99.90
13591;DHT22;6866;50.778;7.206;2023-12-14T08:51:33;7.90;99.90
13591;DHT22;6866;50.778;7.206;2023-12-14T08:53:58;7.70;99.90
13591;DHT22;6866;50.778;7.206;2023-12-14T08:56:24;7.70;99.90
13591;DHT22;6866;50.778;7.206;2023-12-14T08:58:49;7.70;99.90
13591;DHT22;6866;50.778;7.206;2023-12-14T09:01:22;7.80;99.90
13591;DHT22;6866;50.778;7.206;2023-12-14T09:03:48;7.70;99.90
13591;DHT22;6866;50.778;7.206;2023-12-14T09:06:15;7.80;99.90
13591;DHT22;6866;50.778;7.206;2023-12-14T09:08:41;7.80;99.90
13591;DHT22;6866;50.778;7.206;2023-12-14T09:11:07;7.80;99.90
13591;DHT22;6866;50.778;7.206;2023-12-14T09:13:32;7.80;99.90
13591;DHT22;6866;50.778;7.206;2023-12-14T09:15:58;7.80;99.90
13591;DHT22;6866;50.778;7.206;2023-12-14T09:18:24;7.70;99.90
13591;DHT22;6866;50.778;7.206;2023-12-14T09:20:51;7.80;99.90
13591;DHT22;6866;50.778;7.206;2023-12-14T09:23:17;7.80;99.90
13591;DHT22;6866;50.778;7.206;2023-12-14T09:25:42;7.70;99.90
13591;DHT22;6866;50.778;7.206;2023-12-14T09:28:08;7.70;99.90
13591;DHT22;6866;50.778;7.206;2023-12-14T09:30:33;7.70;99.90
13591;DHT22;6866;50.778;7.206;2023-12-14T09:32:59;7.60;99.90
13591;DHT22;6866;50.778;7.206;2023-12-14T09:35:24;7.60;99.90
13591;DHT22;6866;50.778;7.206;2023-12-14T09:37:50;7.60;99.90
13591;DHT22;6866;50.778;7.206;2023-12-14T09:40:16;7.70;99.90
13591;DHT22;6866;50.778;7.206;2023-12-14T09:42:43;7.60;99.90
13591;DHT22;6866;50.778;7.206;2023-12-14T09:45:09;7.60;99.90
13591;DHT22;6866;50.778;7.206;2023-12-14T09:47:37;7.60;99.90
13591;DHT22;6866;50.778;7.206;2023-12-14T09:50:03;7.80;99.90
13591;DHT22;6866;50.778;7.206;2023-12-14T09:52:29;7.80;99.90
13591;DHT22;6866;50.778;7.206;2023-12-14T09:54:54;7.70;99.90
13591;DHT22;6866;50.778;7.206;2023-12-14T09:57:20;7.60;99.90
13591;DHT22;6866;50.778;7.206;2023-12-14T09:59:53;7.70;99.90
13591;DHT22;6866;50.778;7.206;2023-12-14T10:02:19;7.80;99.90
13591;DHT22;6866;50.778;7.206;2023-12-14T10:04:45;7.70;99.90
13591;DHT22;6866;50.778;7.206;2023-12-14T10:07:11;7.70;99.90
13591;DHT22;6866;50.778;7.206;2023-12-14T10:09:37;7.70;99.90
13591;DHT22;6866;50.778;7.206;2023-12-14T10:12:08;7.70;99.90
13591;DHT22;6866;50.778;7.206;2023-12-14T10:14:35;7.70;99.90
13591;DHT22;6866;50.778;7.206;2023-12-14T10:17:21;7.70;99.90
13591;DHT22;6866;50.778;7.206;2023-12-14T10:19:48;7.60;99.90
13591;DHT22;6866;50.778;7.206;2023-12-14T10:22:14;7.60;99.90
13591;DHT22;6866;50.778;7.206;2023-12-14T10:24:43;7.70;99.90
13591;DHT22;6866;50.778;7.206;2023-12-14T10:27:09;7.60;99.90
13591;DHT22;6866;50.778;7.206;2023-12-14T10:29:34;7.60;99.90
13591;DHT22;6866;50.778;7.206;2023-12-14T10:32:05;7.60;99.90
13591;DHT22;6866;50.778;7.206;2023-12-14T10:34:35;7.70;99.90
13591;DHT22;6866;50.778;7.206;2023-12-14T10:37:01;7.70;99.90
13591;DHT22;6866;50.778;7.206;2023-12-14T10:39:29;7.70;99.90
13591;DHT22;6866;50.778;7.206;2023-12-14T10:41:57;7.80;99.90
13591;DHT22;6866;50.778;7.206;2023-12-14T10:44:26;7.80;99.90
13591;DHT22;6866;50.778;7.206;2023-12-14T10:46:55;7.90;99.90
13591;DHT22;6866;50.778;7.206;2023-12-14T10:49:25;7.90;99.90
13591;DHT22;6866;50.778;7.206;2023-12-14T10:51:55;7.90;99.90
13591;DHT22;6866;50.778;7.206;2023-12-14T10:54:23;7.80;99.90
13591;DHT22;6866;50.778;7.206;2023-12-14T10:56:54;7.70;99.90
13591;DHT22;6866;50.778;7.206;2023-12-14T10:59:19;7.70;99.90
13591;DHT22;6866;50.778;7.206;2023-12-14T11:01:45;7.70;99.90
13591;DHT22;6866;50.778;7.206;2023-12-14T11:04:16;7.70;99.90
13591;DHT22;6866;50.778;7.206;2023-12-14T11:06:42;7.70;99.90
13591;DHT22;6866;50.778;7.206;2023-12-14T11:09:12;7.60;99.90
13591;DHT22;6866;50.778;7.206;2023-12-14T11:14:15;7.60;99.90
13591;DHT22;6866;50.778;7.206;2023-12-14T11:16:44;7.60;99.90
13591;DHT22;6866;50.778;7.206;2023-12-14T11:24:37;7.70;99.90
13591;DHT22;6866;50.778;7.206;2023-12-14T11:27:08;7.50;99.90
13591;DHT22;6866;50.778;7.206;2023-12-14T11:29:38;7.50;99.90
13591;DHT22;6866;50.778;7.206;2023-12-14T11:32:06;7.40;99.90
13591;DHT22;6866;50.778;7.206;2023-12-14T11:34:32;7.50;99.90
13591;DHT22;6866;50.778;7.206;2023-12-14T11:36:57;7.50;99.90
13591;DHT22;6866;50.778;7.206;2023-12-14T11:39:23;7.60;99.90
13591;DHT22;6866;50.778;7.206;2023-12-14T11:44:28;7.60;99.90
13591;DHT22;6866;50.778;7.206;2023-12-14T11:46:53;7.60;99.90
13591;DHT22;6866;50.778;7.206;2023-12-14T11:49:19;7.70;99.90
13591;DHT22;6866;50.778;7.206;2023-12-14T11:51:51;7.80;99.90
13591;DHT22;6866;50.778;7.206;2023-12-14T11:54:17;7.80;99.90
13591;DHT22;6866;50.778;7.206;2023-12-14T11:56:47;7.80;99.90
13591;DHT22;6866;50.778;7.206;2023-12-14T11:59:15;7.90;99.90
13591;DHT22;6866;50.778;7.206;2023-12-14T12:01:56;7.80;99.90
13591;DHT22;6866;50.778;7.206;2023-12-14T12:04:23;7.70;99.90
13591;DHT22;6866;50.778;7.206;2023-12-14T12:06:49;7.70;99.90
13591;DHT22;6866;50.778;7.206;2023-12-14T12:09:33;7.70;99.90
13591;DHT22;6866;50.778;7.206;2023-12-14T12:11:58;7.80;99.90
13591;DHT22;6866;50.778;7.206;2023-12-14T12:14:24;7.90;99.90
13591;DHT22;6866;50.778;7.206;2023-12-14T12:16:49;7.80;99.90
13591;DHT22;6866;50.778;7.206;2023-12-14T12:19:17;7.80;99.90
13591;DHT22;6866;50.778;7.206;2023-12-14T12:21:42;7.80;99.90
13591;DHT22;6866;50.778;7.206;2023-12-14T12:24:08;7.70;99.90
13591;DHT22;6866;50.778;7.206;2023-12-14T12:26:33;7.70;99.90
13591;DHT22;6866;50.778;7.206;2023-12-14T12:28:59;7.60;99.90
13591;DHT22;6866;50.778;7.206;2023-12-14T12:31:24;7.60;99.90
13591;DHT22;6866;50.778;7.206;2023-12-14T12:33:50;7.70;99.90
13591;DHT22;6866;50.778;7.206;2023-12-14T12:36:15;7.60;99.90
13591;DHT22;6866;50.778;7.206;2023-12-14T12:38:41;7.50;99.90
13591;DHT22;6866;50.778;7.206;2023-12-14T12:41:06;7.40;99.90
13591;DHT22;6866;50.778;7.206;2023-12-14T12:43:32;7.50;99.90
13591;DHT22;6866;50.778;7.206;2023-12-14T12:45:57;7.50;99.90
13591;DHT22;6866;50.778;7.206;2023-12-14T12:48:23;7.50;99.90
13591;DHT22;6866;50.778;7.206;2023-12-14T12:50:49;7.40;99.90
13591;DHT22;6866;50.778;7.206;2023-12-14T12:53:14;7.50;99.90
13591;DHT22;6866;50.778;7.206;2023-12-14T12:55:40;7.50;99.90
13591;DHT22;6866;50.778;7.206;2023-12-14T12:58:06;7.50;99.90
13591;DHT22;6866;50.778;7.206;2023-12-14T13:00:32;7.50;99.90
13591;DHT22;6866;50.778;7.206;2023-12-14T13:03:01;7.50;99.90
13591;DHT22;6866;50.778;7.206;2023-12-14T13:05:27;7.60;99.90
13591;DHT22;6866;50.778;7.206;2023-12-14T13:07:53;7.50;99.90
13591;DHT22;6866;50.778;7.206;2023-12-14T13:10:20;7.50;99.90
13591;DHT22;6866;50.778;7.206;2023-12-14T13:12:55;7.50;99.90
13591;DHT22;6866;50.778;7.206;2023-12-14T13:15:21;7.50;99.90
13591;DHT22;6866;50.778;7.206;2023-12-14T13:17:49;7.60;99.90
13591;DHT22;6866;50.778;7.206;2023-12-14T13:20:15;7.50;99.90
13591;DHT22;6866;50.778;7.206;2023-12-14T13:22:40;7.40;99.90
13591;DHT22;6866;50.778;7.206;2023-12-14T13:25:06;7.50;99.90
13591;DHT22;6866;50.778;7.206;2023-12-14T13:27:32;7.50;99.90
13591;DHT22;6866;50.778;7.206;2023-12-14T13:29:57;7.40;99.90
13591;DHT22;6866;50.778;7.206;2023-12-14T13:32:23;7.50;99.90
13591;DHT22;6866;50.778;7.206;2023-12-14T13:34:48;7.50;99.90
13591;DHT22;6866;50.778;7.206;2023-12-14T13:37:14;7.60;99.90
13591;DHT22;6866;50.778;7.206;2023-12-14T13:39:39;7.50;99.90
13591;DHT22;6866;50.778;7.206;2023-12-14T13:42:05;7.50;99.90
13591;DHT22;6866;50.778;7.206;2023-12-14T13:44:34;7.60;99.90
13591;DHT22;6866;50.778;7.206;2023-12-14T13:47:03;7.60;99.90
13591;DHT22;6866;50.778;7.206;2023-12-14T13:49:29;7.60;99.90
13591;DHT22;6866;50.778;7.206;2023-12-14T13:51:55;7.70;99.90
13591;DHT22;6866;50.778;7.206;2023-12-14T13:54:20;7.70;99.90
13591;DHT22;6866;50.778;7.206;2023-12-14T13:56:46;7.70;99.90
13591;DHT22;6866;50.778;7.206;2023-12-14T13:59:11;7.70;99.90
13591;DHT22;6866;50.778;7.206;2023-12-14T14:01:37;7.80;99.90
13591;DHT22;6866;50.778;7.206;2023-12-14T14:04:03;7.90;99.90
13591;DHT22;6866;50.778;7.206;2023-12-14T14:06:29;7.80;99.90
13591;DHT22;6866;50.778;7.206;2023-12-14T14:08:54;7.80;99.90
13591;DHT22;6866;50.778;7.206;2023-12-14T14:11:21;7.80;99.90
13591;DHT22;6866;50.778;7.206;2023-12-14T14:13:46;7.80;99.90
13591;DHT22;6866;50.778;7.206;2023-12-14T14:16:12;7.80;99.90
13591;DHT22;6866;50.778;7.206;2023-12-14T14:18:37;7.70;99.90
13591;DHT22;6866;50.778;7.206;2023-12-14T14:21:03;7.70;99.90
13591;DHT22;6866;50.778;7.206;2023-12-14T14:23:33;7.70;99.90
13591;DHT22;6866;50.778;7.206;2023-12-14T14:25:59;7.80;99.90
13591;DHT22;6866;50.778;7.206;2023-12-14T14:28:24;7.80;99.90
13591;DHT22;6866;50.778;7.206;2023-12-14T14:30:50;7.80;99.90
13591;DHT22;6866;50.778;7.206;2023-12-14T14:33:15;7.70;99.90
13591;DHT22;6866;50.778;7.206;2023-12-14T14:35:47;7.80;99.90
13591;DHT22;6866;50.778;7.206;2023-12-14T14:38:13;7.80;99.90
13591;DHT22;6866;50.778;7.206;2023-12-14T14:40:39;7.80;99.90
13591;DHT22;6866;50.778;7.206;2023-12-14T14:43:05;7.80;99.90
13591;DHT22;6866;50.778;7.206;2023-12-14T14:45:31;7.80;99.90
13591;DHT22;6866;50.778;7.206;2023-12-14T14:47:56;7.80;99.90
13591;DHT22;6866;50.778;7.206;2023-12-14T14:50:22;7.80;99.90
13591;DHT22;6866;50.778;7.206;2023-12-14T14:52:47;7.70;99.90
13591;DHT22;6866;50.778;7.206;2023-12-14T14:55:14;7.70;99.90
13591;DHT22;6866;50.778;7.206;2023-12-14T14:57:40;7.70;99.90
13591;DHT22;6866;50.778;7.206;2023-12-14T15:00:06;7.50;99.90
13591;DHT22;6866;50.778;7.206;2023-12-14T15:02:32;7.50;99.90
13591;DHT22;6866;50.778;7.206;2023-12-14T15:04:58;7.60;99.90
13591;DHT22;6866;50.778;7.206;2023-12-14T15:07:24;7.50;99.90
13591;DHT22;6866;50.778;7.206;2023-12-14T15:09:49;7.40;99.90
13591;DHT22;6866;50.778;7.206;2023-12-14T15:12:15;7.50;99.90
13591;DHT22;6866;50.778;7.206;2023-12-14T15:14:40;7.50;99.90
13591;DHT22;6866;50.778;7.206;2023-12-14T15:17:06;7.60;99.90
13591;DHT22;6866;50.778;7.206;2023-12-14T15:19:32;7.50;99.90
13591;DHT22;6866;50.778;7.206;2023-12-14T15:21:57;7.40;99.90
13591;DHT22;6866;50.778;7.206;2023-12-14T15:24:23;7.40;99.90
13591;DHT22;6866;50.778;7.206;2023-12-14T15:26:48;7.40;99.90
13591;DHT22;6866;50.778;7.206;2023-12-14T15:29:15;7.40;99.90
13591;DHT22;6866;50.778;7.206;2023-12-14T15:31:40;7.40;99.90
13591;DHT22;6866;50.778;7.206;2023-12-14T15:34:06;7.40;99.90
13591;DHT22;6866;50.778;7.206;2023-12-14T15:36:34;7.40;99.90
13591;DHT22;6866;50.778;7.206;2023-12-14T15:39:00;7.40;99.90
13591;DHT22;6866;50.778;7.206;2023-12-14T15:41:26;7.40;99.90
13591;DHT22;6866;50.778;7.206;2023-12-14T15:43:52;7.40;99.90
13591;DHT22;6866;50.778;7.206;2023-12-14T15:46:18;7.40;99.90
13591;DHT22;6866;50.778;7.206;2023-12-14T15:48:43;7.50;99.90
13591;DHT22;6866;50.778;7.206;2023-12-14T15:51:10;7.50;99.90
13591;DHT22;6866;50.778;7.206;2023-12-14T15:53:35;7.30;99.90
13591;DHT22;6866;50.778;7.206;2023-12-14T15:56:01;7.40;99.90
13591;DHT22;6866;50.778;7.206;2023-12-14T15:58:27;7.40;99.90
13591;DHT22;6866;50.778;7.206;2023-12-14T16:00:53;7.30;99.90
13591;DHT22;6866;50.778;7.206;2023-12-14T16:03:18;7.30;99.90
13591;DHT22;6866;50.778;7.206;2023-12-14T16:05:44;7.30;99.90
13591;DHT22;6866;50.778;7.206;2023-12-14T16:08:09;7.40;99.90
13591;DHT22;6866;50.778;7.206;2023-12-14T16:10:36;7.30;99.90